createdAt,value
2024-03-04T00:02:19.717Z,73.61
2024-03-04T00:04:46.961Z,73.94
2024-03-04T00:07:14.075Z,73.90
2024-03-04T00:09:41.427Z,74.02
2024-03-04T00:12:08.635Z,73.94
2024-03-04T00:14:36.192Z,73.57
2024-03-04T00:17:03.139Z,74.01
2024-03-04T00:19:30.760Z,73.55
2024-03-04T00:21:57.800Z,73.34
2024-03-04T00:24:25.076Z,73.85
2024-03-04T00:26:51.988Z,73.39
2024-03-04T00:29:19.234Z,73.91
2024-03-04T00:31:46.392Z,73.67
2024-03-04T00:34:14.133Z,73.83
2024-03-04T00:36:41.152Z,73.65
2024-03-04T00:39:10.822Z,73.51
2024-03-04T00:41:37.944Z,73.56
2024-03-04T00:44:05.633Z,74.12
2024-03-04T00:46:33.241Z,74.27
2024-03-04T00:49:00.422Z,73.82
2024-03-04T00:51:27.396Z,73.93
2024-03-04T00:53:54.709Z,73.72
2024-03-04T00:56:22.325Z,74.01
2024-03-04T00:58:50.478Z,73.73
2024-03-04T01:01:17.516Z,73.63
2024-03-04T01:03:44.713Z,73.41
2024-03-04T01:06:11.721Z,73.75
2024-03-04T01:08:39.500Z,73.56
2024-03-04T01:11:06.875Z,73.27
2024-03-04T01:13:34.387Z,73.69
2024-03-04T01:16:01.548Z,73.20
2024-03-04T01:18:30.660Z,73.58
2024-03-04T01:20:58.067Z,73.72
2024-03-04T01:23:25.275Z,73.50
2024-03-04T01:25:52.250Z,73.81
2024-03-04T01:28:19.510Z,73.57
2024-03-04T01:30:49.077Z,73.25
2024-03-04T01:33:18.131Z,72.80
2024-03-04T01:35:45.009Z,73.08
2024-03-04T01:38:12.234Z,73.37
2024-03-04T01:40:39.193Z,72.81
2024-03-04T01:43:07.480Z,73.53
2024-03-04T01:45:34.626Z,73.35
2024-03-04T01:48:05.042Z,73.44
2024-03-04T01:50:40.164Z,73.07
2024-03-04T01:53:09.759Z,73.17
2024-03-04T01:55:43.593Z,73.24
2024-03-04T01:58:13.846Z,73.30
2024-03-04T02:00:45.705Z,73.20
2024-03-04T02:03:16.562Z,73.24
2024-03-04T02:05:49.946Z,73.45
2024-03-04T02:08:18.483Z,73.61
2024-03-04T02:10:45.830Z,73.22
2024-03-04T02:13:13.504Z,73.07
2024-03-04T02:15:40.683Z,73.24
2024-03-04T02:18:09.421Z,72.96
2024-03-04T02:20:43.844Z,73.22
2024-03-04T02:23:13.766Z,73.56
2024-03-04T02:25:55.955Z,73.64
2024-03-04T02:28:24.677Z,73.36
2024-03-04T02:30:52.232Z,73.48
2024-03-04T02:33:22.838Z,74.06
2024-03-04T02:35:51.136Z,74.12
2024-03-04T02:38:19.816Z,73.64
2024-03-04T02:40:50.203Z,74.10
2024-03-04T02:43:19.101Z,73.72
2024-03-04T02:45:46.318Z,73.85
2024-03-04T02:48:14.496Z,74.15
2024-03-04T02:50:41.472Z,74.13
2024-03-04T02:53:09.929Z,73.87
2024-03-04T02:55:38.580Z,73.66
2024-03-04T02:58:07.750Z,74.00
2024-03-04T03:00:35.504Z,73.84
2024-03-04T03:03:02.829Z,74.20
2024-03-04T03:05:29.929Z,74.11
2024-03-04T03:07:57.258Z,73.92
2024-03-04T03:10:24.635Z,73.66
2024-03-04T03:12:52.057Z,73.32
2024-03-04T03:15:18.939Z,73.54
2024-03-04T03:17:46.109Z,73.40
2024-03-04T03:20:19.476Z,73.59
2024-03-04T03:22:50.158Z,73.23
2024-03-04T03:25:17.980Z,73.29
2024-03-04T03:27:45.609Z,73.48
2024-03-04T03:30:13.388Z,72.97
2024-03-04T03:32:41.406Z,73.44
2024-03-04T03:35:09.281Z,73.48
2024-03-04T03:37:36.967Z,73.81
2024-03-04T03:40:05.426Z,73.69
2024-03-04T03:42:35.346Z,73.73
2024-03-04T03:45:02.489Z,74.02
2024-03-04T03:47:31.746Z,73.83
2024-03-04T03:49:58.953Z,73.31
2024-03-04T03:52:26.524Z,73.50
2024-03-04T03:54:53.520Z,73.67
2024-03-04T03:57:20.743Z,73.61
2024-03-04T03:59:48.108Z,73.15
2024-03-04T04:02:15.448Z,73.21
2024-03-04T04:04:42.437Z,72.98
2024-03-04T04:07:10.715Z,73.49
2024-03-04T04:09:37.744Z,73.26
2024-03-04T04:12:05.318Z,73.34
2024-03-04T04:14:32.223Z,73.20
2024-03-04T04:16:59.377Z,72.95
2024-03-04T04:19:26.385Z,73.07
2024-03-04T04:21:53.986Z,73.54
2024-03-04T04:24:20.927Z,73.36
2024-03-04T04:26:48.149Z,73.50
2024-03-04T04:29:15.100Z,74.11
2024-03-04T04:31:42.403Z,74.46
2024-03-04T04:34:09.357Z,74.09
2024-03-04T04:36:36.994Z,74.15
2024-03-04T04:39:04.078Z,74.23
2024-03-04T04:41:35.029Z,74.48
2024-03-04T04:44:03.051Z,73.77
2024-03-04T04:46:30.405Z,74.40
2024-03-04T04:48:57.385Z,74.26
2024-03-04T04:51:24.726Z,73.95
2024-03-04T04:53:54.460Z,74.12
2024-03-04T04:56:22.886Z,74.00
2024-03-04T04:58:49.976Z,73.96
2024-03-04T05:01:30.499Z,74.60
2024-03-04T05:06:28.409Z,74.31
2024-03-04T05:08:55.368Z,73.85
2024-03-04T05:11:23.876Z,73.73
2024-03-04T05:13:50.956Z,74.27
2024-03-04T05:16:18.138Z,73.77
2024-03-04T05:18:45.033Z,73.72
2024-03-04T05:21:13.152Z,74.09
2024-03-04T05:23:40.355Z,74.21
2024-03-04T05:26:07.555Z,73.80
2024-03-04T05:28:34.574Z,73.86
2024-03-04T05:31:01.950Z,73.72
2024-03-04T05:33:28.922Z,73.98
2024-03-04T05:35:56.164Z,73.54
2024-03-04T05:38:24.252Z,74.39
2024-03-04T05:40:51.751Z,74.36
2024-03-04T05:43:19.364Z,74.10
2024-03-04T05:45:46.989Z,74.83
2024-03-04T05:48:14.379Z,74.57
2024-03-04T05:50:41.904Z,74.53
2024-03-04T05:53:08.810Z,74.80
2024-03-04T05:55:36.705Z,74.69
2024-03-04T05:58:04.898Z,74.76
2024-03-04T06:00:33.588Z,74.67
2024-03-04T06:03:00.739Z,75.30
2024-03-04T06:05:28.457Z,74.87
2024-03-04T06:07:59.893Z,74.35
2024-03-04T06:10:28.784Z,74.55
2024-03-04T06:12:55.819Z,74.40
2024-03-04T06:15:23.079Z,75.31
2024-03-04T06:17:50.616Z,75.84
2024-03-04T06:20:17.846Z,76.00
2024-03-04T06:22:44.846Z,75.26
2024-03-04T06:25:12.112Z,75.43
2024-03-04T06:27:39.192Z,75.47
2024-03-04T06:30:12.281Z,75.37
2024-03-04T06:32:39.390Z,75.50
2024-03-04T06:35:07.568Z,75.45
2024-03-04T06:37:34.822Z,75.91
2024-03-04T06:40:02.362Z,75.71
2024-03-04T06:42:30.100Z,75.46
2024-03-04T06:44:57.450Z,75.92
2024-03-04T06:47:24.420Z,75.94
2024-03-04T06:49:52.396Z,75.46
2024-03-04T06:52:19.372Z,75.40
2024-03-04T06:54:51.051Z,75.36
2024-03-04T06:57:18.801Z,75.64
2024-03-04T06:59:46.398Z,75.00
2024-03-04T07:02:13.488Z,74.87
2024-03-04T07:04:40.920Z,74.76
2024-03-04T07:07:07.962Z,74.40
2024-03-04T07:09:35.311Z,74.46
2024-03-04T07:12:02.181Z,73.92
2024-03-04T07:14:29.426Z,73.84
2024-03-04T07:16:56.432Z,73.53
2024-03-04T07:19:24.838Z,73.65
2024-03-04T07:21:51.813Z,73.74
2024-03-04T07:24:19.089Z,73.34
2024-03-04T07:26:46.135Z,73.76
2024-03-04T07:29:20.217Z,73.38
2024-03-04T07:31:51.338Z,73.48
2024-03-04T07:34:19.006Z,73.19
2024-03-04T07:36:46.070Z,73.10
2024-03-04T07:39:13.300Z,72.80
2024-03-04T07:41:40.188Z,72.10
2024-03-04T07:44:07.561Z,72.67
2024-03-04T07:46:34.794Z,72.58
2024-03-04T07:49:02.098Z,72.67
2024-03-04T07:51:29.120Z,72.72
2024-03-04T07:53:56.591Z,72.28
2024-03-04T07:56:23.541Z,72.69
2024-03-04T07:58:50.816Z,72.22
2024-03-04T08:01:17.960Z,72.33
2024-03-04T08:03:46.557Z,72.03
2024-03-04T08:06:13.862Z,72.54
2024-03-04T08:08:41.068Z,72.06
2024-03-04T08:11:08.268Z,71.87
2024-03-04T08:13:35.569Z,71.86
2024-03-04T08:16:02.729Z,72.27
2024-03-04T08:18:30.059Z,72.26
2024-03-04T08:20:57.308Z,72.19
2024-03-04T08:23:24.491Z,72.28
2024-03-04T08:25:53.114Z,72.30
2024-03-04T08:28:28.582Z,72.39
2024-03-04T08:31:02.275Z,72.25
2024-03-04T08:33:29.500Z,71.83
2024-03-04T08:35:56.486Z,72.35
2024-03-04T08:38:24.845Z,72.18
2024-03-04T08:40:51.867Z,71.95
2024-03-04T08:43:19.185Z,71.93
2024-03-04T08:45:46.118Z,72.16
2024-03-04T08:48:13.276Z,72.47
2024-03-04T08:50:40.266Z,72.83
2024-03-04T08:53:07.465Z,72.87
2024-03-04T08:55:34.478Z,73.11
2024-03-04T08:58:02.381Z,73.28
2024-03-04T09:00:29.318Z,73.37
2024-03-04T09:02:56.594Z,73.74
2024-03-04T09:05:23.756Z,74.15
2024-03-04T09:07:51.044Z,74.27
2024-03-04T09:10:18.536Z,74.61
2024-03-04T09:12:48.809Z,74.44
2024-03-04T09:15:17.862Z,74.81
2024-03-04T09:17:45.157Z,74.76
2024-03-04T09:20:12.322Z,75.08
2024-03-04T09:22:41.904Z,74.76
2024-03-04T09:25:09.348Z,76.25
2024-03-04T09:27:37.831Z,75.43
2024-03-04T09:30:07.704Z,75.43
2024-03-04T09:32:35.536Z,75.00
2024-03-04T09:35:06.408Z,74.93
2024-03-04T09:37:33.957Z,74.52
2024-03-04T09:40:01.013Z,74.76
2024-03-04T09:42:32.258Z,74.70
2024-03-04T09:45:00.571Z,74.68
2024-03-04T09:47:28.765Z,74.26
2024-03-04T09:49:57.753Z,73.91
2024-03-04T09:52:28.473Z,74.08
2024-03-04T09:55:01.161Z,74.12
2024-03-04T09:57:29.827Z,73.59
2024-03-04T09:59:59.581Z,73.45
2024-03-04T10:02:26.913Z,73.42
2024-03-04T10:04:54.089Z,73.19
2024-03-04T10:07:21.393Z,73.13
2024-03-04T10:09:48.364Z,72.67
2024-03-04T10:12:15.582Z,72.71
2024-03-04T10:15:01.239Z,72.74
2024-03-04T10:17:29.097Z,72.77
2024-03-04T10:20:07.734Z,73.65
2024-03-04T10:22:35.691Z,73.54
2024-03-04T10:25:11.650Z,73.47
2024-03-04T10:27:42.467Z,73.28
2024-03-04T10:30:26.349Z,73.92
2024-03-04T10:32:57.304Z,73.44
2024-03-04T10:35:29.586Z,73.22
2024-03-04T10:38:03.847Z,73.58
2024-03-04T10:40:34.755Z,73.28
2024-03-04T10:43:02.358Z,72.73
2024-03-04T10:45:33.606Z,72.50
2024-03-04T10:48:04.901Z,72.48
2024-03-04T10:50:32.380Z,71.82
2024-03-04T10:53:03.157Z,71.82
2024-03-04T10:55:31.987Z,71.31
2024-03-04T10:58:03.803Z,70.92
2024-03-04T11:00:38.550Z,71.11
2024-03-04T11:03:14.400Z,70.38
2024-03-04T11:05:46.080Z,70.44
2024-03-04T11:08:21.182Z,69.68
2024-03-04T11:10:52.703Z,69.52
2024-03-04T11:13:26.188Z,69.27
2024-03-04T11:16:05.556Z,69.05
2024-03-04T11:19:20.849Z,68.86
2024-03-04T11:21:48.603Z,68.87
2024-03-04T11:24:17.828Z,68.06
2024-03-04T11:26:46.645Z,68.27
2024-03-04T11:29:15.877Z,68.11
2024-03-04T11:31:55.134Z,67.78
2024-03-04T11:34:22.563Z,67.68
2024-03-04T11:36:54.449Z,67.53
2024-03-04T11:39:23.014Z,67.53
2024-03-04T11:41:57.011Z,67.18
2024-03-04T11:44:24.561Z,66.69
2024-03-04T11:46:51.986Z,66.07
2024-03-04T11:49:33.973Z,65.79
2024-03-04T11:52:21.639Z,66.07
2024-03-04T11:54:50.147Z,65.36
2024-03-04T11:57:18.654Z,64.98
2024-03-04T12:00:04.008Z,65.03
2024-03-04T12:02:31.470Z,64.78
2024-03-04T12:04:59.785Z,64.67
2024-03-04T12:07:27.357Z,64.37
2024-03-04T12:10:08.922Z,64.41
2024-03-04T12:12:43.103Z,63.92
2024-03-04T12:15:13.655Z,63.84
2024-03-04T12:17:41.423Z,63.85
2024-03-04T12:20:09.711Z,63.68
2024-03-04T12:22:38.928Z,62.91
2024-03-04T12:25:12.254Z,62.52
2024-03-04T12:27:43.584Z,63.05
2024-03-04T12:30:18.552Z,62.86
2024-03-04T12:32:51.866Z,62.86
2024-03-04T12:35:33.649Z,62.72
2024-03-04T12:38:03.609Z,62.21
2024-03-04T12:40:31.099Z,61.62
2024-03-04T12:43:04.696Z,62.23
2024-03-04T12:45:34.572Z,61.21
2024-03-04T12:48:02.340Z,61.20
2024-03-04T12:50:30.944Z,61.41
2024-03-04T12:52:59.740Z,60.66
2024-03-04T12:55:28.039Z,60.30
2024-03-04T12:57:57.672Z,60.38
2024-03-04T13:00:26.318Z,59.85
2024-03-04T13:02:53.447Z,59.87
2024-03-04T13:05:20.668Z,60.16
2024-03-04T13:07:48.116Z,59.90
2024-03-04T13:10:16.488Z,59.82
2024-03-04T13:12:46.071Z,59.59
2024-03-04T13:15:13.848Z,59.35
2024-03-04T13:17:46.424Z,59.14
2024-03-04T13:20:16.788Z,59.15
2024-03-04T13:22:50.327Z,59.09
2024-03-04T13:25:19.357Z,58.44
2024-03-04T13:27:47.945Z,57.87
2024-03-04T13:30:15.745Z,57.97
2024-03-04T13:32:43.128Z,57.75
2024-03-04T13:35:11.161Z,57.65
2024-03-04T13:37:39.567Z,57.63
2024-03-04T13:40:12.105Z,57.49
2024-03-04T13:42:39.581Z,56.94
2024-03-04T13:45:10.020Z,56.63
2024-03-04T13:47:37.593Z,56.80
2024-03-04T13:50:05.772Z,56.12
2024-03-04T13:52:33.342Z,56.24
2024-03-04T13:55:01.175Z,56.44
2024-03-04T13:57:28.448Z,56.01
2024-03-04T13:59:55.685Z,55.91
2024-03-04T14:02:22.929Z,56.09
2024-03-04T14:04:50.344Z,54.65
2024-03-04T14:07:17.543Z,54.66
2024-03-04T14:09:44.789Z,54.50
2024-03-04T14:12:11.766Z,54.52
2024-03-04T14:14:38.976Z,54.65
2024-03-04T14:17:07.103Z,52.95
2024-03-04T14:19:34.540Z,52.94
2024-03-04T14:22:01.450Z,52.93
2024-03-04T14:24:29.006Z,52.68
2024-03-04T14:26:56.002Z,52.64
2024-03-04T14:29:23.204Z,52.92
2024-03-04T14:31:53.283Z,53.03
2024-03-04T14:34:21.071Z,53.39
2024-03-04T14:36:48.183Z,52.59
2024-03-04T14:39:15.397Z,52.16
2024-03-04T14:41:42.300Z,51.15
2024-03-04T14:44:10.199Z,51.18
2024-03-04T14:46:37.344Z,51.56
2024-03-04T14:49:04.690Z,51.49
2024-03-04T14:51:31.631Z,50.69
2024-03-04T14:53:58.957Z,51.00
2024-03-04T14:56:29.765Z,51.79
2024-03-04T14:58:57.612Z,50.69
2024-03-04T15:01:25.238Z,49.96
2024-03-04T15:03:52.558Z,50.06
2024-03-04T15:06:19.916Z,49.43
2024-03-04T15:08:50.125Z,49.72
2024-03-04T15:11:17.255Z,49.68
2024-03-04T15:13:45.372Z,50.07
2024-03-04T15:16:12.768Z,49.27
2024-03-04T15:18:41.279Z,49.57
2024-03-04T15:21:08.809Z,49.41
2024-03-04T15:23:36.577Z,49.86
2024-03-04T15:26:03.852Z,49.25
2024-03-04T15:28:31.670Z,49.33
2024-03-04T15:30:58.770Z,48.90
2024-03-04T15:33:26.144Z,48.92
2024-03-04T15:35:57.029Z,49.01
2024-03-04T15:38:30.352Z,48.87
2024-03-04T15:41:01.203Z,49.41
2024-03-04T15:43:28.596Z,49.25
2024-03-04T15:45:55.767Z,49.12
2024-03-04T15:48:23.039Z,49.20
2024-03-04T15:50:50.879Z,49.39
2024-03-04T15:53:18.192Z,49.00
2024-03-04T15:55:45.291Z,49.35
2024-03-04T15:58:12.666Z,49.36
2024-03-04T16:00:40.839Z,49.61
2024-03-04T16:03:08.350Z,49.95
2024-03-04T16:05:35.808Z,49.64
2024-03-04T16:08:04.921Z,49.90
2024-03-04T16:10:32.189Z,49.88
2024-03-04T16:12:59.729Z,50.02
2024-03-04T16:15:37.821Z,50.22
2024-03-04T16:18:12.653Z,50.18
2024-03-04T16:20:40.127Z,50.38
2024-03-04T16:23:08.371Z,50.23
2024-03-04T16:25:35.380Z,50.83
2024-03-04T16:28:02.758Z,50.71
2024-03-04T16:30:29.786Z,50.87
2024-03-04T16:32:57.415Z,50.28
2024-03-04T16:35:28.421Z,51.03
2024-03-04T16:37:59.358Z,51.00
2024-03-04T16:40:26.480Z,51.42
2024-03-04T16:42:54.007Z,51.35
2024-03-04T16:45:21.074Z,51.56
2024-03-04T16:47:48.518Z,51.85
2024-03-04T16:50:18.621Z,52.08
2024-03-04T16:52:46.298Z,52.51
2024-03-04T16:55:13.812Z,52.69
2024-03-04T16:57:41.384Z,52.81
2024-03-04T17:00:12.664Z,52.72
2024-03-04T17:02:40.063Z,53.03
2024-03-04T17:05:11.651Z,53.49
2024-03-04T17:07:43.421Z,53.70
2024-03-04T17:10:14.959Z,53.72
2024-03-04T17:12:42.559Z,53.70
2024-03-04T17:15:12.823Z,54.30
2024-03-04T17:17:40.619Z,53.72
2024-03-04T17:20:11.563Z,53.83
2024-03-04T17:22:39.637Z,54.12
2024-03-04T17:25:07.703Z,54.26
2024-03-04T17:27:35.877Z,54.59
2024-03-04T17:30:04.613Z,54.95
2024-03-04T17:32:32.977Z,54.97
2024-03-04T17:35:01.934Z,55.21
2024-03-04T17:37:30.470Z,55.26
2024-03-04T17:39:57.999Z,54.95
2024-03-04T17:42:27.211Z,55.02
2024-03-04T17:44:55.637Z,54.91
2024-03-04T17:47:22.997Z,54.85
2024-03-04T17:49:50.811Z,55.02
2024-03-04T17:52:18.624Z,54.89
2024-03-04T17:54:46.073Z,55.16
2024-03-04T17:57:13.836Z,55.40
2024-03-04T17:59:42.034Z,55.52
2024-03-04T18:02:10.690Z,55.76
2024-03-04T18:04:42.620Z,56.05
2024-03-04T18:07:10.019Z,55.97
2024-03-04T18:09:37.134Z,55.97
2024-03-04T18:12:04.768Z,56.25
2024-03-04T18:14:31.726Z,56.61
2024-03-04T18:16:59.341Z,56.85
2024-03-04T18:19:26.800Z,56.84
2024-03-04T18:21:54.085Z,57.26
2024-03-04T18:24:21.064Z,57.42
2024-03-04T18:26:48.508Z,57.98
2024-03-04T18:29:16.358Z,58.02
2024-03-04T18:31:43.710Z,58.83
2024-03-04T18:34:13.356Z,58.96
2024-03-04T18:36:45.160Z,59.10
2024-03-04T18:39:14.166Z,59.86
2024-03-04T18:41:41.920Z,59.83
2024-03-04T18:44:09.079Z,60.53
2024-03-04T18:46:36.511Z,60.49
2024-03-04T18:49:03.633Z,61.21
2024-03-04T18:51:31.620Z,61.37
2024-03-04T18:53:59.773Z,61.63
2024-03-04T18:56:27.344Z,62.31
2024-03-04T18:58:54.605Z,62.36
2024-03-04T19:01:28.024Z,62.22
2024-03-04T19:03:55.353Z,62.59
2024-03-04T19:06:23.891Z,62.83
2024-03-04T19:08:51.060Z,62.74
2024-03-04T19:11:19.001Z,63.09
2024-03-04T19:13:47.468Z,63.29
2024-03-04T19:16:15.415Z,63.21
2024-03-04T19:18:42.568Z,63.07
2024-03-04T19:21:19.688Z,63.08
2024-03-04T19:23:46.967Z,63.63
2024-03-04T19:26:21.951Z,63.58
2024-03-04T19:28:51.669Z,63.95
2024-03-04T19:31:24.084Z,64.05
2024-03-04T19:33:55.253Z,64.20
2024-03-04T19:36:25.956Z,64.35
2024-03-04T19:38:54.518Z,64.47
2024-03-04T19:41:27.712Z,64.72
2024-03-04T19:43:55.296Z,65.23
2024-03-04T19:46:27.008Z,65.70
2024-03-04T19:48:54.740Z,65.53
2024-03-04T19:51:23.693Z,65.64
2024-03-04T19:53:52.338Z,65.66
2024-03-04T19:56:20.119Z,65.91
2024-03-04T19:58:47.605Z,66.09
2024-03-04T20:01:15.178Z,66.31
2024-03-04T20:03:44.349Z,66.79
2024-03-04T20:06:12.627Z,66.34
2024-03-04T20:08:41.962Z,67.04
2024-03-04T20:11:13.277Z,67.37
2024-03-04T20:13:43.196Z,67.39
2024-03-04T20:16:13.958Z,67.58
2024-03-04T20:18:42.453Z,67.84
2024-03-04T20:21:12.867Z,67.82
2024-03-04T20:23:40.170Z,68.03
2024-03-04T20:26:08.055Z,68.74
2024-03-04T20:28:35.232Z,68.57
2024-03-04T20:31:03.800Z,68.78
2024-03-04T20:33:31.771Z,69.05
2024-03-04T20:35:59.147Z,69.47
2024-03-04T20:38:26.782Z,69.60
2024-03-04T20:40:54.552Z,69.56
2024-03-04T20:43:21.886Z,69.80
2024-03-04T20:45:49.188Z,70.00
2024-03-04T20:48:18.638Z,70.03
2024-03-04T20:50:48.738Z,70.84
2024-03-04T20:53:15.689Z,70.56
2024-03-04T20:55:45.292Z,70.85
2024-03-04T20:58:12.507Z,71.30
2024-03-04T21:00:39.997Z,71.19
2024-03-04T21:03:07.674Z,71.76
2024-03-04T21:05:37.016Z,71.83
2024-03-04T21:08:06.492Z,71.75
2024-03-04T21:10:34.004Z,72.17
2024-03-04T21:13:01.110Z,72.24
2024-03-04T21:15:28.278Z,72.63
2024-03-04T21:17:58.102Z,72.64
2024-03-04T21:20:27.583Z,72.59
2024-03-04T21:22:55.846Z,72.84
2024-03-04T21:25:23.909Z,72.96
2024-03-04T21:27:53.548Z,72.93
2024-03-04T21:30:22.477Z,73.51
2024-03-04T21:32:49.937Z,73.33
2024-03-04T21:35:17.327Z,73.33
2024-03-04T21:37:44.472Z,73.68
2024-03-04T21:40:12.836Z,73.91
2024-03-04T21:42:41.022Z,73.78
2024-03-04T21:45:09.781Z,73.88
2024-03-04T21:47:37.074Z,73.88
2024-03-04T21:50:08.599Z,74.23
2024-03-04T21:52:37.146Z,74.36
2024-03-04T21:55:05.511Z,74.28
2024-03-04T21:57:32.500Z,74.23
2024-03-04T21:59:59.775Z,74.49
2024-03-04T22:02:26.832Z,74.43
2024-03-04T22:04:54.194Z,74.61
2024-03-04T22:07:21.362Z,74.82
2024-03-04T22:09:48.700Z,75.01
2024-03-04T22:12:15.666Z,74.78
2024-03-04T22:14:42.965Z,75.04
2024-03-04T22:17:11.562Z,74.91
2024-03-04T22:19:38.945Z,75.17
2024-03-04T22:22:05.901Z,75.36
2024-03-04T22:24:33.118Z,74.63
2024-03-04T22:27:00.017Z,74.95
2024-03-04T22:29:28.060Z,74.95
2024-03-04T22:31:55.171Z,75.11
2024-03-04T22:34:24.113Z,74.91
2024-03-04T22:36:51.119Z,75.07
2024-03-04T22:39:18.252Z,75.16
2024-03-04T22:41:47.056Z,75.05
2024-03-04T22:44:16.361Z,74.78
2024-03-04T22:46:44.793Z,74.50
2024-03-04T22:49:12.258Z,74.79
2024-03-04T22:51:39.404Z,74.39
2024-03-04T22:54:06.635Z,74.13
2024-03-04T22:56:34.237Z,74.82
2024-03-04T22:59:01.818Z,74.39
2024-03-04T23:01:32.505Z,73.93
2024-03-04T23:04:00.147Z,74.26
2024-03-04T23:06:27.233Z,74.46
2024-03-04T23:08:54.774Z,73.75
2024-03-04T23:11:22.406Z,73.86
2024-03-04T23:13:50.361Z,74.05
2024-03-04T23:16:17.631Z,73.37
2024-03-04T23:18:44.888Z,73.63
2024-03-04T23:21:11.982Z,73.44
2024-03-04T23:23:39.686Z,73.72
2024-03-04T23:26:08.093Z,73.62
2024-03-04T23:28:39.045Z,73.62
2024-03-04T23:31:06.110Z,73.79
2024-03-04T23:33:33.380Z,73.12
2024-03-04T23:36:00.313Z,73.34
2024-03-04T23:38:28.115Z,73.78
2024-03-04T23:40:55.548Z,73.43
2024-03-04T23:43:23.389Z,73.44
2024-03-04T23:45:52.195Z,73.12
2024-03-04T23:48:20.590Z,72.71
2024-03-04T23:50:48.581Z,73.00
2024-03-04T23:53:16.302Z,72.81
2024-03-04T23:55:43.421Z,73.36
2024-03-04T23:58:10.802Z,73.08
